createdAt,value
2023-03-29T14:01:07.475Z,23.1080
2023-03-29T14:02:08.663Z,23.1024
2023-03-29T14:03:09.833Z,23.2241
2023-03-29T14:04:11.093Z,23.3289
2023-03-29T14:05:12.318Z,23.4086
2023-03-29T14:06:13.546Z,23.3641
2023-03-29T14:07:14.812Z,23.3124
2023-03-29T14:08:19.401Z,23.2635
2023-03-29T14:09:20.931Z,23.2412
2023-03-29T14:10:22.423Z,23.2527
2023-03-29T14:11:24.481Z,23.2718
2023-03-29T14:12:25.653Z,23.2721
2023-03-29T14:13:27.036Z,23.2825
2023-03-29T14:14:28.553Z,23.3049
2023-03-29T14:15:30.049Z,23.3289
2023-03-29T14:16:31.815Z,23.3511
2023-03-29T14:17:33.133Z,23.3852
2023-03-29T14:18:34.802Z,23.4020
2023-03-29T14:19:36.128Z,23.4110
2023-03-29T14:21:58.808Z,23.7001
2023-03-29T14:23:00.047Z,23.6534
2023-03-29T14:24:01.282Z,23.7257
2023-03-29T14:25:02.477Z,23.7698
2023-03-29T14:26:03.972Z,23.7163
2023-03-29T14:27:04.989Z,23.7200
2023-03-29T14:28:06.234Z,23.7193
2023-03-29T14:29:07.445Z,23.6942
2023-03-29T14:30:07.600Z,23.6856
2023-03-29T14:32:04.573Z,23.8165
2023-03-29T14:33:05.787Z,23.6564
2023-03-29T14:34:06.958Z,23.6464
2023-03-29T14:35:10.401Z,23.6659
2023-03-29T14:36:12.064Z,23.6809
2023-03-29T14:37:13.475Z,23.6493
2023-03-29T14:38:14.927Z,23.6386
2023-03-29T14:39:17.847Z,23.6596
2023-03-29T14:40:19.120Z,23.7016
2023-03-29T14:41:21.998Z,23.7507
2023-03-29T14:42:21.575Z,23.8119
2023-03-29T14:43:22.746Z,23.7991
2023-03-29T14:44:24.076Z,23.7958
2023-03-29T14:45:25.566Z,23.7985
2023-03-29T14:46:27.197Z,23.8106
2023-03-29T14:47:28.650Z,23.8328
2023-03-29T14:48:30.137Z,23.8610
2023-03-29T14:49:31.702Z,23.8842
2023-03-29T14:50:33.196Z,23.8911
2023-03-29T14:51:34.694Z,23.8085
2023-03-29T14:52:36.239Z,23.7375
2023-03-29T14:53:37.762Z,23.7027
2023-03-29T14:54:39.242Z,23.6501
2023-03-29T14:55:40.799Z,23.6544
2023-03-29T14:56:42.308Z,23.7197
2023-03-29T14:57:43.852Z,23.7621
2023-03-29T14:58:45.316Z,23.7011
2023-03-29T14:59:46.854Z,23.6698
2023-03-29T15:00:48.399Z,23.6552
2023-03-29T15:01:50.010Z,23.6054
2023-03-29T15:02:51.536Z,23.5895
2023-03-29T15:03:54.712Z,23.5291
2023-03-29T15:04:54.461Z,23.4986
2023-03-29T15:05:56.003Z,23.5072
2023-03-29T15:06:57.510Z,23.5327
2023-03-29T15:07:59.025Z,23.5657
2023-03-29T15:09:06.161Z,23.5610
2023-03-29T15:10:04.418Z,23.5415
2023-03-29T15:11:05.694Z,23.5493
2023-03-29T15:12:06.925Z,23.5179
2023-03-29T15:13:08.181Z,23.5343
2023-03-29T15:14:09.433Z,23.5459
2023-03-29T15:15:10.629Z,23.5640
2023-03-29T15:16:12.075Z,23.5714
2023-03-29T15:17:13.122Z,23.5780
2023-03-29T15:18:14.441Z,23.5771
2023-03-29T15:19:15.725Z,23.5385
2023-03-29T15:20:17.260Z,23.4722
2023-03-29T15:21:18.794Z,23.4719
2023-03-29T15:22:20.275Z,23.4606
2023-03-29T15:23:21.854Z,23.4455
2023-03-29T15:24:23.368Z,23.4422
2023-03-29T15:25:24.877Z,23.4678
2023-03-29T15:26:26.394Z,23.4486
2023-03-29T15:27:27.928Z,23.4197
2023-03-29T15:28:29.487Z,23.4146
2023-03-29T15:29:30.936Z,23.4138
2023-03-29T15:30:33.982Z,23.3904
2023-03-29T15:31:35.245Z,23.3647
2023-03-29T15:32:36.465Z,23.3502
2023-03-29T15:33:37.922Z,23.3363
2023-03-29T15:34:38.930Z,23.3272
2023-03-29T15:35:40.160Z,23.3334
2023-03-29T15:36:41.703Z,23.3382
2023-03-29T15:37:43.136Z,23.3644
2023-03-29T15:38:45.508Z,23.3328
2023-03-29T15:39:46.180Z,23.2794
2023-03-29T15:40:47.763Z,23.2422
2023-03-29T15:41:49.287Z,23.2058
2023-03-29T15:42:50.760Z,23.1753
2023-03-29T15:43:52.268Z,23.1752
2023-03-29T15:44:53.809Z,23.1354
2023-03-29T15:45:55.330Z,23.0984
2023-03-29T15:46:56.875Z,23.0704
2023-03-29T15:47:59.735Z,23.0534
2023-03-29T15:49:01.015Z,23.0712
2023-03-29T15:50:02.198Z,23.1226
2023-03-29T15:51:06.534Z,23.1355
2023-03-29T15:52:04.677Z,23.0771
2023-03-29T15:53:15.149Z,23.0225
2023-03-29T15:54:07.584Z,22.9850
2023-03-29T15:55:08.998Z,22.9673
2023-03-29T15:56:10.562Z,23.0162
2023-03-29T15:57:12.482Z,23.0848
2023-03-29T15:58:13.665Z,23.1051
2023-03-29T15:59:18.129Z,23.1290
2023-03-29T16:00:19.350Z,23.1299
2023-03-29T16:01:20.574Z,23.0836
2023-03-29T16:02:21.854Z,23.0355
2023-03-29T16:03:23.089Z,22.9986
2023-03-29T16:04:24.291Z,22.9670
2023-03-29T16:05:25.546Z,22.9427
2023-03-29T16:06:26.786Z,22.9212
2023-03-29T16:07:27.980Z,22.9086
2023-03-29T16:08:29.232Z,22.8973
2023-03-29T16:09:30.554Z,22.8854
2023-03-29T16:10:31.798Z,22.8771
2023-03-29T16:11:33.332Z,22.8749
2023-03-29T16:12:34.830Z,22.8567
2023-03-29T16:13:36.509Z,22.8518
2023-03-29T16:14:37.928Z,22.8469
2023-03-29T16:15:39.421Z,22.8356
2023-03-29T16:16:40.969Z,22.8337
2023-03-29T16:17:42.511Z,22.8713
2023-03-29T16:18:43.943Z,22.9335
2023-03-29T16:19:45.542Z,22.9732
2023-03-29T16:20:46.991Z,22.9515
2023-03-29T16:21:48.558Z,22.9249
2023-03-29T16:22:50.031Z,22.9287
2023-03-29T16:23:51.580Z,22.9263
2023-03-29T16:24:53.141Z,22.9652
2023-03-29T16:25:54.633Z,23.0149
2023-03-29T16:26:56.486Z,23.0535
2023-03-29T16:27:57.671Z,23.0672
2023-03-29T16:28:59.165Z,23.0833
2023-03-29T16:30:00.736Z,23.0821
2023-03-29T16:31:02.212Z,23.0713
2023-03-29T16:32:06.265Z,23.0919
2023-03-29T17:45:53.497Z,20.4132
2023-03-29T17:46:54.801Z,20.2032
2023-03-29T17:47:56.045Z,20.1542
2023-03-29T17:48:57.204Z,20.1081
2023-03-29T17:52:32.756Z,20.4501
2023-03-29T17:53:34.018Z,20.3129
2023-03-29T17:54:35.231Z,20.2899
2023-03-29T17:55:36.481Z,20.2779
2023-03-29T17:56:37.710Z,20.2778
2023-03-29T17:57:39.424Z,20.2739
2023-03-29T17:58:40.168Z,20.2715
2023-03-29T17:59:41.473Z,20.2729
2023-03-29T18:00:46.195Z,20.2559
2023-03-29T18:01:48.646Z,20.2430
2023-03-29T18:02:44.656Z,20.2319
2023-03-29T18:03:46.132Z,20.2291
2023-03-29T18:04:47.612Z,20.2327
2023-03-29T18:05:49.126Z,20.2363
2023-03-29T18:06:50.654Z,20.2352
2023-03-29T18:07:52.199Z,20.2296
2023-03-29T18:08:53.714Z,20.2282
2023-03-29T18:09:55.236Z,20.2279
2023-03-29T18:10:56.752Z,20.2271
2023-03-29T18:11:58.283Z,20.2300
2023-03-29T18:12:59.953Z,20.2283
2023-03-29T18:14:01.327Z,20.2508
2023-03-29T18:15:02.858Z,20.2954
2023-03-29T18:16:04.560Z,20.3182
2023-03-29T18:17:05.900Z,20.3290
2023-03-29T18:18:08.740Z,21.3675
2023-03-29T18:19:08.917Z,23.2836
2023-03-29T18:20:10.453Z,21.3456
2023-03-29T18:21:11.948Z,20.9213
2023-03-29T18:22:13.463Z,20.7114
2023-03-29T18:23:14.998Z,20.6101
2023-03-29T18:24:16.518Z,20.5426
2023-03-29T18:25:18.033Z,20.4824
2023-03-29T18:26:19.562Z,20.4398
2023-03-29T18:27:21.115Z,20.4147
2023-03-29T18:28:22.653Z,20.3966
2023-03-29T18:29:24.142Z,20.3755
2023-03-29T18:30:25.647Z,20.3620
2023-03-29T18:31:27.278Z,20.3456
2023-03-29T18:32:28.716Z,20.3333
2023-03-29T18:33:30.234Z,20.3227
2023-03-29T18:34:31.733Z,20.3144
2023-03-29T18:35:33.325Z,20.3045
2023-03-29T18:36:34.780Z,20.2989
2023-03-29T18:37:36.328Z,20.2944
2023-03-29T18:38:41.443Z,20.2841
2023-03-29T18:39:48.951Z,20.2811
2023-03-29T18:40:44.203Z,20.2765
2023-03-29T18:43:17.959Z,20.2560
2023-03-29T18:44:18.607Z,20.2174
2023-03-29T18:45:20.171Z,20.2145
2023-03-29T18:46:22.603Z,20.2107
2023-03-29T18:47:23.407Z,20.2036
2023-03-29T18:48:24.686Z,20.2012
2023-03-29T18:49:26.202Z,20.2095
2023-03-29T18:50:29.449Z,20.2248
2023-03-29T18:51:29.222Z,20.2168
2023-03-29T18:52:32.364Z,20.2179
2023-03-29T18:53:37.034Z,20.2096
2023-03-29T18:54:38.549Z,20.2054
2023-03-29T18:55:40.126Z,20.1984
2023-03-29T18:56:42.028Z,20.1959
2023-03-29T18:57:43.099Z,20.1922
2023-03-29T18:58:44.628Z,20.1897
2023-03-29T18:59:46.134Z,20.1915
2023-03-29T19:00:47.632Z,20.1866
2023-03-29T19:01:53.266Z,20.2037
2023-03-29T19:02:53.867Z,20.2380
2023-03-29T19:03:55.774Z,20.2365
2023-03-29T19:04:56.281Z,20.2307
2023-03-29T19:05:57.503Z,20.2188
2023-03-29T19:06:58.741Z,20.1806
2023-03-29T19:07:59.988Z,20.1759
2023-03-29T19:09:01.242Z,20.1545
2023-03-29T19:10:02.486Z,20.1269
2023-03-29T19:11:03.756Z,20.1164
2023-03-29T19:12:04.969Z,20.1149
2023-03-29T19:13:06.241Z,20.0950
2023-03-29T19:14:07.515Z,20.0849
2023-03-29T19:15:08.940Z,20.0768
2023-03-29T19:16:10.536Z,20.0635
2023-03-29T19:17:11.984Z,20.0578
2023-03-29T19:18:13.630Z,20.0648
2023-03-29T19:19:14.999Z,20.0857
2023-03-29T19:20:16.555Z,20.0953
2023-03-29T19:21:18.045Z,20.0880
2023-03-29T19:22:19.590Z,20.0772
2023-03-29T19:23:21.092Z,20.0814
2023-03-29T19:24:22.642Z,20.0767
2023-03-29T19:25:24.130Z,20.0682
2023-03-29T19:26:25.653Z,20.0498
2023-03-29T19:27:27.196Z,20.0430
2023-03-29T19:28:28.716Z,20.0482
2023-03-29T19:29:30.271Z,20.0570
2023-03-29T19:30:31.735Z,20.0640
2023-03-29T19:31:33.324Z,20.0642
2023-03-29T19:32:34.803Z,20.0556
2023-03-29T19:33:36.318Z,20.0388
2023-03-29T19:34:37.828Z,20.0259
2023-03-29T19:35:39.349Z,20.0249
2023-03-29T19:36:40.858Z,20.0217
2023-03-29T19:37:42.376Z,20.0114
2023-03-29T19:38:44.010Z,20.0076
2023-03-29T19:39:45.448Z,20.0054
2023-03-29T19:40:46.958Z,20.0019
2023-03-29T19:41:48.454Z,19.9991
2023-03-29T19:42:50.036Z,19.9969
2023-03-29T19:43:51.563Z,19.9892
2023-03-29T19:44:53.062Z,19.9969
2023-03-29T19:45:54.748Z,20.0021
2023-03-29T19:46:56.150Z,20.0072
2023-03-29T19:47:57.648Z,20.0202
2023-03-29T19:48:59.127Z,20.0250
2023-03-29T19:50:00.664Z,20.0231
2023-03-29T19:51:02.177Z,20.0128
2023-03-29T19:52:03.729Z,20.0076
2023-03-29T19:53:05.218Z,20.0058
2023-03-29T19:54:06.795Z,20.0106
2023-03-29T19:55:08.318Z,20.0137
2023-03-29T19:56:09.809Z,20.0135
2023-03-29T19:57:11.326Z,20.0155
2023-03-29T19:58:12.906Z,20.0218
2023-03-29T19:59:14.360Z,20.0127
2023-03-29T20:00:15.907Z,19.9909
2023-03-29T20:01:17.406Z,19.9882
2023-03-29T20:02:18.937Z,20.0027
2023-03-29T20:03:20.471Z,20.0010
2023-03-29T20:04:22.033Z,19.9806
2023-03-29T20:05:23.509Z,19.9693
2023-03-29T20:06:25.039Z,19.9593
2023-03-29T20:07:26.545Z,19.9570
2023-03-29T20:08:28.075Z,19.9555
2023-03-29T20:09:29.632Z,19.9563
2023-03-29T20:10:31.136Z,19.9541
2023-03-29T20:11:32.637Z,19.9510
2023-03-29T20:12:34.191Z,19.9501
2023-03-29T20:13:38.718Z,19.9465
2023-03-29T20:14:37.217Z,19.9412
2023-03-29T20:15:38.736Z,19.9407
2023-03-29T20:16:40.316Z,19.9394
2023-03-29T20:17:41.801Z,19.9526
2023-03-29T20:18:43.303Z,19.9668
2023-03-29T20:19:44.860Z,19.9705
2023-03-29T20:20:46.362Z,19.9605
2023-03-29T20:21:47.970Z,19.9402
2023-03-29T20:22:53.696Z,19.9315
2023-03-29T20:23:51.104Z,19.9370
2023-03-29T20:24:52.456Z,19.9372
2023-03-29T20:25:54.012Z,19.9306
2023-03-29T20:26:55.495Z,19.9142
2023-03-29T20:27:57.007Z,19.9013
2023-03-29T20:28:58.529Z,19.8929
2023-03-29T20:30:00.061Z,19.8889
2023-03-29T20:31:01.936Z,19.8859
2023-03-29T20:32:03.151Z,19.8831
2023-03-29T20:33:04.712Z,19.8767
2023-03-29T20:34:06.154Z,19.8644
2023-03-29T20:35:07.691Z,19.8539
2023-03-29T20:36:09.349Z,19.8541
2023-03-29T20:37:10.898Z,19.8564
2023-03-29T20:38:12.269Z,19.8552
2023-03-29T20:39:13.908Z,19.8494
2023-03-29T20:40:15.304Z,19.8483
2023-03-29T20:41:16.822Z,19.8602
2023-03-29T20:42:18.804Z,19.8926
2023-03-29T20:43:19.905Z,19.9396
2023-03-29T20:44:21.859Z,19.9547
2023-03-29T20:45:22.917Z,19.9515
2023-03-29T20:46:24.552Z,19.9273
2023-03-29T20:47:25.973Z,19.9407
2023-03-29T20:48:27.491Z,20.0060
2023-03-29T20:49:29.164Z,20.0494
2023-03-29T20:50:30.588Z,20.0458
2023-03-29T20:51:32.185Z,20.0305
2023-03-29T20:52:33.597Z,20.0238
2023-03-29T20:53:35.121Z,20.0702
2023-03-29T20:54:36.715Z,20.1204
2023-03-29T20:55:38.171Z,20.1118
2023-03-29T20:56:40.715Z,20.0860
2023-03-29T20:57:41.203Z,20.0901
2023-03-29T20:58:42.694Z,20.1251
2023-03-29T20:59:44.253Z,20.1720
2023-03-29T21:00:45.761Z,20.2270
2023-03-29T21:01:47.306Z,20.2584
2023-03-29T21:02:48.867Z,20.2698
2023-03-29T21:03:50.387Z,20.2813
2023-03-29T21:04:51.963Z,20.2925
2023-03-29T21:05:53.449Z,20.2810
2023-03-29T21:06:54.914Z,20.2850
2023-03-29T21:07:56.425Z,20.2852
2023-03-29T21:08:57.942Z,20.2746
2023-03-29T21:09:59.465Z,20.2522
2023-03-29T21:11:01.140Z,20.2197
2023-03-29T21:12:02.599Z,20.1955
2023-03-29T21:13:04.041Z,20.2217
2023-03-29T21:14:05.576Z,20.2461
2023-03-29T21:15:07.084Z,20.2599
2023-03-29T21:16:08.662Z,20.2668
2023-03-29T21:17:10.186Z,20.2622
2023-03-29T21:18:11.726Z,20.2446
2023-03-29T21:19:13.169Z,20.2320
2023-03-29T21:20:14.721Z,20.2190
2023-03-29T21:21:16.252Z,20.2155
2023-03-29T21:22:22.608Z,20.2167
2023-03-29T21:23:26.055Z,20.2115
2023-03-29T21:24:29.520Z,20.2115
2023-03-29T21:25:29.615Z,20.2095
2023-03-29T21:26:30.525Z,20.2079
2023-03-29T21:27:31.555Z,20.2086
2023-03-29T21:28:33.153Z,20.2097
2023-03-29T21:29:35.434Z,20.2102
2023-03-29T21:30:36.752Z,20.1986
2023-03-29T21:31:37.276Z,20.2195
2023-03-29T21:32:37.783Z,20.2438
2023-03-29T21:33:40.801Z,20.2483
2023-03-29T21:34:41.452Z,20.2465
2023-03-29T21:35:42.447Z,20.2330
2023-03-29T21:36:43.835Z,20.2226
2023-03-29T21:37:45.334Z,20.2236
2023-03-29T21:38:46.943Z,20.2242
2023-03-29T21:39:49.518Z,20.2292
2023-03-29T21:40:50.022Z,20.2103
2023-03-29T21:41:51.422Z,20.1823
2023-03-29T21:42:52.945Z,20.1662
2023-03-29T21:43:54.475Z,20.1444
2023-03-29T21:44:56.012Z,20.1202
2023-03-29T21:45:57.613Z,20.0977
2023-03-29T21:46:59.133Z,20.0665
2023-03-29T21:48:00.647Z,20.0457
2023-03-29T21:49:02.162Z,20.0975
2023-03-29T21:50:03.652Z,20.1790
2023-03-29T21:51:05.446Z,20.2210
2023-03-29T21:52:06.683Z,20.1554
2023-03-29T21:53:08.693Z,20.1151
2023-03-29T21:54:10.267Z,20.1030
2023-03-29T22:06:32.735Z,20.1054
2023-03-29T22:06:32.735Z,20.0668
2023-03-29T22:07:24.827Z,20.0479
2023-03-29T22:08:26.439Z,20.0586
2023-03-29T22:09:27.887Z,20.0511
2023-03-29T22:10:29.432Z,20.0843
2023-03-29T22:11:31.866Z,20.1215
2023-03-29T22:12:32.473Z,20.1398
2023-03-29T22:13:33.981Z,20.1434
2023-03-29T22:14:36.243Z,20.1289
2023-03-29T22:15:37.009Z,20.1061
2023-03-29T22:16:40.956Z,20.0835
2023-03-29T22:17:41.513Z,20.0717
2023-03-29T22:18:42.765Z,20.0554
2023-03-29T22:19:43.946Z,20.0522
2023-03-29T22:20:45.197Z,20.0524
2023-03-29T22:21:46.423Z,20.0591
2023-03-29T22:22:47.808Z,20.0594
2023-03-29T22:23:49.187Z,20.0523
2023-03-29T22:24:51.888Z,20.0006
2023-03-29T22:25:52.237Z,19.9976
2023-03-29T22:26:53.742Z,20.0216
2023-03-29T22:27:55.312Z,20.0301
2023-03-29T22:28:57.378Z,20.0288
2023-03-29T22:29:58.348Z,20.0147
2023-03-29T22:31:00.288Z,20.0199
2023-03-29T22:32:01.474Z,20.0178
2023-03-29T22:33:02.984Z,20.0223
2023-03-29T22:34:04.503Z,20.0499
2023-03-29T22:35:05.942Z,20.0814
2023-03-29T22:36:07.457Z,20.1032
2023-03-29T22:37:08.978Z,20.1103
2023-03-29T22:38:10.503Z,20.1152
2023-03-29T22:39:12.038Z,20.1119
2023-03-29T22:40:13.558Z,20.1054
2023-03-29T22:41:15.071Z,20.0984
2023-03-29T22:42:16.609Z,20.1057
2023-03-29T22:43:18.140Z,20.1181
2023-03-29T22:44:19.640Z,20.1443
2023-03-29T22:45:21.206Z,20.1653
2023-03-29T22:46:22.777Z,20.1655
2023-03-29T22:47:24.240Z,20.1517
2023-03-29T22:48:25.709Z,20.1441
2023-03-29T22:49:27.257Z,20.1405
2023-03-29T22:50:28.769Z,20.1344
2023-03-29T22:51:30.301Z,20.1331
2023-03-29T22:52:31.852Z,20.1328
2023-03-29T22:53:33.376Z,20.1276
2023-03-29T22:54:34.864Z,20.1345
2023-03-29T22:55:36.375Z,20.1449
2023-03-29T22:56:37.997Z,20.1409
2023-03-29T22:57:39.472Z,20.1393
2023-03-29T22:58:40.988Z,20.1470
2023-03-29T22:59:42.493Z,20.1393
2023-03-29T23:00:44.019Z,20.1266
2023-03-29T23:01:45.514Z,20.1005
2023-03-29T23:02:47.031Z,20.0535
2023-03-29T23:03:48.595Z,20.0252
2023-03-29T23:04:50.222Z,20.0015
2023-03-29T23:05:51.587Z,19.9783
2023-03-29T23:06:53.193Z,19.9608
2023-03-29T23:07:54.624Z,19.9539
2023-03-29T23:08:56.170Z,19.9402
2023-03-29T23:09:57.723Z,19.9359
2023-03-29T23:10:59.188Z,19.9249
2023-03-29T23:12:00.854Z,19.9178
2023-03-29T23:13:02.224Z,19.9401
2023-03-29T23:14:03.744Z,19.9468
2023-03-29T23:15:05.304Z,19.9452
2023-03-29T23:16:06.889Z,19.9263
2023-03-29T23:17:08.307Z,19.9060
2023-03-29T23:18:09.852Z,19.8999
2023-03-29T23:19:11.347Z,19.8891
2023-03-29T23:20:12.938Z,19.8767
2023-03-29T23:21:14.397Z,19.8650
2023-03-29T23:22:15.951Z,19.8565
2023-03-29T23:23:17.438Z,19.8539
2023-03-29T23:24:19.323Z,19.8485
2023-03-29T23:25:20.490Z,19.8401
2023-03-29T23:26:22.003Z,19.8310
2023-03-29T23:27:23.576Z,19.8227
2023-03-29T23:28:25.069Z,19.8123
2023-03-29T23:29:26.567Z,19.8065
2023-03-29T23:30:28.108Z,19.8059
2023-03-29T23:31:29.657Z,19.8082
2023-03-29T23:32:31.165Z,19.8037
2023-03-29T23:33:32.689Z,19.8003
2023-03-29T23:34:34.185Z,19.7944
2023-03-29T23:35:35.773Z,19.7843
2023-03-29T23:36:37.233Z,19.7752
2023-03-29T23:37:38.799Z,19.7666
2023-03-29T23:38:40.262Z,19.7598
2023-03-29T23:39:41.826Z,19.7669
2023-03-29T23:40:43.316Z,19.7677
2023-03-29T23:41:44.915Z,19.7634
2023-03-29T23:42:46.384Z,19.7611
2023-03-29T23:43:47.913Z,19.7528
2023-03-29T23:44:49.402Z,19.7390
2023-03-29T23:45:51.083Z,19.7327
2023-03-29T23:46:52.541Z,19.7306
2023-03-29T23:47:54.025Z,19.7299
2023-03-29T23:48:55.554Z,19.7287
2023-03-29T23:49:57.016Z,19.7259
2023-03-29T23:50:59.616Z,19.7317
2023-03-29T23:52:00.077Z,19.7234
2023-03-29T23:53:01.560Z,19.7139
2023-03-29T23:54:03.120Z,19.7077
2023-03-29T23:55:04.595Z,19.7009
2023-03-29T23:56:06.139Z,19.7000
2023-03-29T23:57:07.757Z,19.7054
2023-03-29T23:58:09.156Z,19.7098
2023-03-29T23:59:10.741Z,19.7072
